Time;durP1;ratioP1;P1;durP2;ratioP2;P2;SDS_P1;SDS_P2;PMS_P1;PMS_P2;Temp;Humidity;BMP_temperature;BMP_pressure;BME280_temperature;BME280_humidity;BME280_pressure;Samples;Min_cycle;Max_cycle;Signal;HPM_P1;HPM_P2
2023/03/29 00:00:59;;;;;;;11.30;7.07;;;;;;;6.85;61.84;98961.06;5033302;28;20087;-56
2023/03/29 00:03:25;;;;;;;9.95;6.75;;;;;;;6.78;61.81;98943.88;5033071;28;20509;-53
2023/03/29 00:05:56;;;;;;;7.55;5.78;;;;;;;6.89;61.85;98968.69;5033986;28;20464;-57
2023/03/29 00:08:23;;;;;;;10.35;7.03;;;;;;;6.89;62.03;98955.38;5026337;28;20034;-57
2023/03/29 00:10:50;;;;;;;8.82;6.40;;;;;;;6.86;62.18;98960.09;5014296;28;20038;-57
2023/03/29 00:13:16;;;;;;;8.32;6.47;;;;;;;6.82;62.22;98950.66;5013159;28;20034;-58
2023/03/29 00:15:42;;;;;;;11.95;6.53;;;;;;;6.96;61.32;98937.06;5014158;28;20041;-59
2023/03/29 00:18:07;;;;;;;8.98;6.90;;;;;;;6.86;61.87;98941.47;5026454;28;20029;-62
2023/03/29 00:20:33;;;;;;;10.80;6.35;;;;;;;7.03;61.42;98948.09;5033000;28;20029;-58
2023/03/29 00:22:58;;;;;;;9.52;6.45;;;;;;;7.11;60.74;98942.16;5033642;28;20372;-56
2023/03/29 00:25:24;;;;;;;8.13;5.95;;;;;;;7.02;61.31;98938.41;5033824;28;20073;-55
2023/03/29 00:27:49;;;;;;;9.27;6.13;;;;;;;7.04;60.86;98937.34;5017206;28;20033;-58
2023/03/29 00:30:15;;;;;;;8.10;6.00;;;;;;;7.16;60.32;98942.63;5013812;28;20415;-58
2023/03/29 00:32:41;;;;;;;8.77;6.50;;;;;;;7.15;60.45;98935.59;5013589;28;20109;-56
2023/03/29 00:35:07;;;;;;;7.18;5.95;;;;;;;7.28;59.91;98925.66;5013005;28;20445;-52
2023/03/29 00:37:33;;;;;;;8.73;5.30;;;;;;;7.32;59.81;98927.09;5014092;28;20087;-55
2023/03/29 00:40:00;;;;;;;6.75;5.43;;;;;;;7.24;59.87;98924.22;5017392;28;20049;-57
2023/03/29 00:42:25;;;;;;;7.55;6.07;;;;;;;7.22;59.60;98920.81;5032901;28;20041;-57
2023/03/29 00:45:03;;;;;;;6.28;5.28;;;;;;;7.34;59.41;98921.63;5029164;28;20037;-54
2023/03/29 00:47:48;;;;;;;5.72;4.70;;;;;;;7.46;59.31;98917.97;5013495;28;20042;-58
2023/03/29 00:50:30;;;;;;;6.57;4.97;;;;;;;7.32;59.32;98918.25;5012508;28;20092;-57
2023/03/29 00:53:12;;;;;;;6.38;5.35;;;;;;;7.28;59.34;98912.34;5013433;28;20120;-51
2023/03/29 00:55:47;;;;;;;7.10;5.00;;;;;;;7.32;59.08;98932.44;5013596;28;20091;-54
2023/03/29 00:58:17;;;;;;;8.00;5.55;;;;;;;7.37;59.15;98929.41;5013545;28;20072;-56
2023/03/29 01:01:11;;;;;;;8.40;4.63;;;;;;;7.32;59.08;98923.56;5013022;28;20092;-56
2023/03/29 01:03:44;;;;;;;5.75;4.85;;;;;;;7.17;59.62;98928.34;5028673;28;20033;-57
2023/03/29 01:06:13;;;;;;;11.60;5.20;;;;;;;7.12;59.53;98898.59;5033258;28;20123;-64
2023/03/29 01:08:43;;;;;;;6.10;4.75;;;;;;;7.14;59.47;98923.28;5032034;28;20037;-57
2023/03/29 01:11:26;;;;;;;7.40;4.68;;;;;;;7.10;60.02;98914.66;5033287;28;20041;-59
2023/03/29 01:14:02;;;;;;;12.10;4.43;;;;;;;7.08;59.58;98907.81;5031979;28;20439;-55
2023/03/29 01:16:30;;;;;;;5.28;4.55;;;;;;;6.80;60.22;98888.75;5032729;28;20029;-55
2023/03/29 01:18:57;;;;;;;6.57;5.05;;;;;;;6.97;60.03;98925.47;5013606;28;20103;-53
2023/03/29 01:21:29;;;;;;;8.18;4.95;;;;;;;7.07;59.95;98904.28;5022773;28;20025;-55
2023/03/29 01:23:57;;;;;;;7.35;4.70;;;;;;;7.11;59.71;98907.53;5032749;28;20037;-54
2023/03/29 01:26:46;;;;;;;6.82;5.00;;;;;;;7.28;59.13;98903.50;5018565;28;20030;-55
2023/03/29 01:29:25;;;;;;;10.65;5.00;;;;;;;7.19;59.54;98891.78;5012695;28;20129;-62
2023/03/29 01:32:02;;;;;;;5.95;4.97;;;;;;;7.15;59.40;98893.88;5012759;28;20026;-52
2023/03/29 01:34:43;;;;;;;6.20;5.10;;;;;;;7.10;59.79;98887.22;5012638;28;20026;-54
2023/03/29 01:37:23;;;;;;;6.13;5.05;;;;;;;7.01;59.96;98892.34;5012336;28;20026;-58
2023/03/29 01:39:51;;;;;;;5.88;4.70;;;;;;;6.97;59.80;98871.41;5023107;28;20037;-57
2023/03/29 01:42:34;;;;;;;6.93;4.93;;;;;;;6.85;60.37;98873.25;5032656;28;20045;-55
2023/03/29 01:45:16;;;;;;;5.40;4.90;;;;;;;6.84;60.52;98872.38;5032722;28;20029;-56
2023/03/29 01:48:00;;;;;;;6.53;5.60;;;;;;;6.91;60.38;98882.56;5025253;28;20117;-63
2023/03/29 01:50:43;;;;;;;6.22;4.72;;;;;;;7.15;59.49;98874.38;5012877;28;20037;-55
2023/03/29 01:53:24;;;;;;;8.27;5.35;;;;;;;6.84;59.90;98837.78;5012117;28;20045;-54
2023/03/29 01:55:54;;;;;;;7.22;4.55;;;;;;;7.08;59.86;98884.69;5012537;28;20500;-57
2023/03/29 01:58:25;;;;;;;7.40;5.70;;;;;;;6.97;60.04;98858.94;5020282;28;20108;-55
2023/03/29 02:00:54;;;;;;;6.25;5.07;;;;;;;7.14;59.38;98867.38;5012544;28;20423;-55
2023/03/29 02:03:25;;;;;;;8.60;5.38;;;;;;;7.07;60.04;98884.81;5012645;28;20033;-56
2023/03/29 02:05:52;;;;;;;7.18;4.68;;;;;;;7.06;59.68;98860.00;5011957;28;20034;-54
2023/03/29 02:08:20;;;;;;;8.80;4.50;;;;;;;7.18;59.53;98860.81;5012589;28;20116;-51
2023/03/29 02:10:46;;;;;;;6.80;5.30;;;;;;;7.04;59.91;98851.31;5019843;28;20120;-55
2023/03/29 02:13:11;;;;;;;8.32;5.18;;;;;;;7.00;60.15;98853.38;5032894;28;20112;-57
2023/03/29 02:15:38;;;;;;;6.10;4.65;;;;;;;6.94;59.74;98821.94;5031342;28;20043;-51
2023/03/29 02:18:05;;;;;;;7.22;5.00;;;;;;;6.96;60.43;98841.28;5010261;28;20487;-57
2023/03/29 02:20:41;;;;;;;8.52;5.30;;;;;;;7.00;60.48;98847.19;5012555;28;20038;-53
2023/03/29 02:23:14;;;;;;;7.07;5.70;;;;;;;7.00;60.19;98850.72;5011616;28;20029;-53
2023/03/29 02:25:41;;;;;;;6.38;4.70;;;;;;;6.91;60.33;98837.31;5012581;28;20034;-53
2023/03/29 02:28:07;;;;;;;7.75;5.00;;;;;;;6.89;60.63;98846.28;5014163;28;20041;-53
2023/03/29 02:30:43;;;;;;;8.38;5.53;;;;;;;6.92;60.61;98837.19;5024832;28;20521;-54
2023/03/29 02:33:18;;;;;;;5.85;4.60;;;;;;;6.94;60.42;98832.56;5035946;28;20083;-57
2023/03/29 02:36:00;;;;;;;6.68;5.07;;;;;;;6.97;60.09;98811.03;5035870;28;20037;-59
2023/03/29 02:38:28;;;;;;;5.78;4.57;;;;;;;7.01;59.79;98825.81;5035275;28;20046;-55
2023/03/29 02:40:55;;;;;;;8.13;5.50;;;;;;;6.73;60.59;98806.75;5034394;28;20041;-54
2023/03/29 02:43:24;;;;;;;6.63;5.38;;;;;;;6.80;61.19;98831.03;5035950;28;20038;-56
2023/03/29 02:45:51;;;;;;;5.85;4.75;;;;;;;6.82;61.00;98817.63;5034763;28;20104;-57
2023/03/29 02:48:21;;;;;;;6.22;5.28;;;;;;;6.97;60.29;98810.19;5031449;28;20029;-55
2023/03/29 02:50:50;;;;;;;7.22;5.18;;;;;;;7.07;60.08;98836.91;5015877;28;20039;-58
2023/03/29 02:53:18;;;;;;;7.10;4.97;;;;;;;7.09;59.75;98819.00;5021995;28;20147;-55
2023/03/29 02:55:45;;;;;;;6.90;5.28;;;;;;;6.92;60.27;98815.06;5035592;28;20383;-57
2023/03/29 02:58:12;;;;;;;8.77;5.53;;;;;;;6.89;60.38;98819.66;5035364;28;20328;-60
2023/03/29 03:00:43;;;;;;;7.47;5.18;;;;;;;6.93;60.40;98814.09;5034493;28;20113;-52
2023/03/29 03:03:10;;;;;;;6.97;4.85;;;;;;;6.98;60.27;98823.38;5035604;28;20053;-53
2023/03/29 03:05:37;;;;;;;6.60;5.10;;;;;;;6.99;60.30;98809.13;5034242;28;20037;-56
2023/03/29 03:08:04;;;;;;;7.03;5.13;;;;;;;6.82;61.04;98806.97;5020091;28;20053;-52
2023/03/29 03:10:32;;;;;;;8.32;5.05;;;;;;;6.86;60.80;98809.25;5014643;28;20037;-53
2023/03/29 03:12:57;;;;;;;10.13;5.65;;;;;;;6.89;60.59;98800.19;5014667;28;20144;-53
2023/03/29 03:15:23;;;;;;;6.15;5.03;;;;;;;6.93;60.20;98814.09;5023069;28;20456;-55
2023/03/29 03:17:48;;;;;;;4.95;4.32;;;;;;;6.87;60.97;98799.47;5017581;28;20033;-55
2023/03/29 03:20:14;;;;;;;6.70;4.78;;;;;;;7.08;59.81;98801.34;5034068;28;20032;-55
2023/03/29 03:22:47;;;;;;;8.20;5.13;;;;;;;7.09;59.99;98800.38;5034727;28;20040;-55
2023/03/29 03:25:19;;;;;;;7.05;5.18;;;;;;;7.22;59.61;98805.50;5029050;28;20444;-55
2023/03/29 03:27:45;;;;;;;5.47;4.72;;;;;;;7.22;59.54;98789.53;5015237;28;20080;-55
2023/03/29 03:30:11;;;;;;;6.45;4.75;;;;;;;7.21;59.51;98794.00;5014866;28;20029;-55
2023/03/29 03:32:37;;;;;;;5.47;4.70;;;;;;;7.32;59.10;98799.28;5015931;28;20038;-54
2023/03/29 03:35:04;;;;;;;5.93;4.00;;;;;;;7.33;59.01;98792.13;5014821;28;20045;-56
2023/03/29 03:37:30;;;;;;;7.65;5.10;;;;;;;7.12;59.05;98768.16;5015459;28;20034;-56
2023/03/29 03:39:56;;;;;;;7.20;5.25;;;;;;;7.22;59.32;98790.38;5014806;28;20077;-55
2023/03/29 03:42:22;;;;;;;6.70;5.60;;;;;;;7.24;59.18;98785.78;5014797;28;20049;-58
2023/03/29 03:44:48;;;;;;;6.97;4.55;;;;;;;7.06;59.26;98766.84;5028337;28;20037;-55
2023/03/29 03:47:14;;;;;;;10.25;5.05;;;;;;;7.10;59.05;98767.44;5034574;28;20039;-59
2023/03/29 03:49:40;;;;;;;8.48;5.53;;;;;;;7.16;59.59;98770.44;5014848;28;20364;-57
2023/03/29 03:52:07;;;;;;;7.05;5.40;;;;;;;7.19;59.55;98774.66;5014400;28;20121;-58
2023/03/29 03:54:33;;;;;;;6.35;5.18;;;;;;;7.17;59.11;98758.81;5034282;28;20440;-56
2023/03/29 03:56:58;;;;;;;9.23;4.90;;;;;;;7.38;59.11;98781.09;5032920;28;20034;-53
2023/03/29 03:59:24;;;;;;;5.63;4.53;;;;;;;7.48;58.86;98787.38;5032030;28;20454;-53
2023/03/29 04:01:50;;;;;;;6.35;4.90;;;;;;;7.47;58.87;98780.31;5032224;28;20095;-65
2023/03/29 04:04:15;;;;;;;7.97;5.32;;;;;;;7.54;58.64;98770.84;5013975;28;20476;-53
2023/03/29 04:06:42;;;;;;;13.95;4.68;;;;;;;7.52;58.60;98778.13;5013980;28;20069;-54
2023/03/29 04:09:08;;;;;;;7.50;5.70;;;;;;;7.57;58.11;98773.25;5012743;28;20046;-54
2023/03/29 04:11:34;;;;;;;9.25;5.00;;;;;;;7.73;57.97;98791.44;5013376;28;20033;-54
2023/03/29 04:14:00;;;;;;;7.90;5.40;;;;;;;7.64;57.91;98738.09;5012881;28;20495;-53
2023/03/29 04:16:26;;;;;;;11.55;6.13;;;;;;;7.65;57.91;98753.09;5013855;28;20034;-56
2023/03/29 04:18:52;;;;;;;6.05;4.85;;;;;;;7.85;57.47;98784.19;4997398;28;20453;-55
2023/03/29 04:21:17;;;;;;;6.55;4.95;;;;;;;7.86;57.07;98764.56;5013764;28;20040;-58
2023/03/29 04:23:45;;;;;;;8.50;5.18;;;;;;;7.74;57.19;98744.31;5027427;28;20029;-56
2023/03/29 04:26:12;;;;;;;8.27;5.13;;;;;;;7.89;57.02;98761.63;5032007;28;20429;-56
2023/03/29 04:28:38;;;;;;;11.23;5.35;;;;;;;8.02;57.12;98789.91;5032628;28;20467;-54
2023/03/29 04:31:04;;;;;;;8.07;4.88;;;;;;;7.99;56.80;98747.53;5021932;28;20109;-56
2023/03/29 04:33:30;;;;;;;11.15;5.20;;;;;;;7.96;57.00;98737.97;5017609;28;20380;-56
2023/03/29 04:35:55;;;;;;;6.55;4.85;;;;;;;8.00;56.93;98749.22;5014346;28;20037;-55
2023/03/29 04:38:23;;;;;;;9.60;4.88;;;;;;;8.24;56.09;98764.88;5013906;28;20057;-55
2023/03/29 04:40:49;;;;;;;13.32;5.38;;;;;;;8.29;55.87;98751.97;5014119;28;20056;-56
2023/03/29 04:43:15;;;;;;;11.27;5.22;;;;;;;8.33;55.74;98744.53;5013552;28;20055;-58
2023/03/29 04:45:40;;;;;;;8.68;4.97;;;;;;;8.43;55.30;98764.06;5019371;28;20052;-53
2023/03/29 04:48:06;;;;;;;9.00;4.75;;;;;;;8.31;55.64;98751.84;5032397;28;20029;-58
2023/03/29 04:50:31;;;;;;;9.10;5.10;;;;;;;8.33;55.63;98756.06;5027897;28;20479;-56
2023/03/29 04:52:59;;;;;;;6.85;4.80;;;;;;;8.21;55.84;98751.81;5013291;28;20061;-59
2023/03/29 04:55:25;;;;;;;6.88;5.07;;;;;;;8.12;56.28;98742.78;5013588;28;20045;-56
2023/03/29 04:57:52;;;;;;;8.35;4.80;;;;;;;8.20;55.99;98750.13;5013927;28;20026;-54
2023/03/29 05:00:19;;;;;;;9.98;4.85;;;;;;;8.32;55.50;98746.38;5013132;28;20022;-56
2023/03/29 05:02:45;;;;;;;6.72;4.28;;;;;;;8.30;55.64;98756.31;5013253;28;20049;-57
2023/03/29 05:05:12;;;;;;;8.57;4.85;;;;;;;8.29;55.46;98743.97;5013233;28;20037;-58
2023/03/29 05:07:38;;;;;;;8.23;4.75;;;;;;;8.39;55.21;98743.16;4995989;28;20042;-56
2023/03/29 05:10:05;;;;;;;11.07;4.45;;;;;;;8.52;55.16;98756.28;5030916;28;20099;-55
2023/03/29 05:12:31;;;;;;;8.07;4.30;;;;;;;8.61;54.73;98753.63;5018691;28;20041;-57
2023/03/29 05:14:57;;;;;;;7.93;5.10;;;;;;;8.73;54.34;98751.69;5013032;28;20475;-57
2023/03/29 05:17:22;;;;;;;6.88;4.70;;;;;;;8.73;53.97;98756.16;5013566;28;20084;-55
2023/03/29 05:19:48;;;;;;;5.88;4.60;;;;;;;8.68;54.27;98748.59;5012052;28;20109;-56
2023/03/29 05:22:14;;;;;;;5.32;3.22;;;;;;;8.85;54.03;98738.19;5012979;28;20910;-56
2023/03/29 05:24:40;;;;;;;9.75;4.68;;;;;;;8.81;54.21;98759.00;5012010;28;20030;-54
2023/03/29 05:27:06;;;;;;;19.90;6.38;;;;;;;8.82;54.14;98752.69;5012877;28;20030;-57
2023/03/29 05:29:32;;;;;;;9.00;4.60;;;;;;;8.53;54.63;98715.28;5014912;28;20038;-56
2023/03/29 05:31:58;;;;;;;10.25;5.07;;;;;;;8.84;54.33;98752.53;5032446;28;20099;-57
2023/03/29 05:34:25;;;;;;;9.70;4.50;;;;;;;8.97;53.79;98744.25;5018104;28;20037;-54
2023/03/29 05:36:51;;;;;;;8.43;4.28;;;;;;;8.79;54.01;98714.75;5012974;28;20045;-54
2023/03/29 05:39:17;;;;;;;7.93;4.10;;;;;;;9.14;53.07;98753.38;5012431;28;20045;-57
2023/03/29 05:41:42;;;;;;;14.13;4.57;;;;;;;9.13;53.33;98743.66;5012790;28;20474;-54
2023/03/29 05:44:08;;;;;;;8.68;4.22;;;;;;;9.17;53.33;98745.94;5011948;28;20038;-58
2023/03/29 05:46:34;;;;;;;7.65;4.55;;;;;;;9.29;52.85;98756.47;5011645;28;20440;-55
2023/03/29 05:49:00;;;;;;;15.38;4.60;;;;;;;9.59;52.27;98757.25;5025346;28;20037;-58
2023/03/29 05:51:26;;;;;;;9.25;4.38;;;;;;;9.89;51.33;98758.03;5032659;28;20030;-62
2023/03/29 05:53:52;;;;;;;6.18;3.92;;;;;;;10.14;50.71;98764.56;5032772;28;20475;-55
2023/03/29 05:56:18;;;;;;;5.75;4.03;;;;;;;10.10;50.04;98716.84;5032142;28;20468;-55
2023/03/29 05:58:45;;;;;;;8.50;4.55;;;;;;;10.12;50.48;98747.78;5032268;28;20033;-55
2023/03/29 06:01:16;;;;;;;9.25;4.50;;;;;;;10.20;50.16;98777.34;5029358;28;20060;-57
2023/03/29 06:03:42;;;;;;;10.93;4.60;;;;;;;10.06;50.50;98756.41;5036393;28;20032;-58
2023/03/29 06:06:09;;;;;;;13.45;4.70;;;;;;;9.98;50.38;98756.31;5035402;28;20437;-60
2023/03/29 06:08:34;;;;;;;7.43;4.35;;;;;;;9.86;51.05;98744.94;5035450;28;20091;-56
2023/03/29 06:11:03;;;;;;;14.55;4.47;;;;;;;9.87;50.96;98742.13;5036192;28;20058;-58
2023/03/29 06:13:29;;;;;;;10.13;4.75;;;;;;;9.91;51.13;98761.38;5035298;28;20033;-54
2023/03/29 06:15:55;;;;;;;10.57;4.00;;;;;;;9.99;50.38;98747.28;5036335;28;20443;-57
2023/03/29 06:18:21;;;;;;;7.35;4.32;;;;;;;9.84;50.76;98739.72;5035769;28;20112;-58
2023/03/29 06:20:50;;;;;;;6.32;4.20;;;;;;;9.78;51.17;98753.69;5034904;28;20103;-57
2023/03/29 06:23:17;;;;;;;10.80;4.38;;;;;;;9.79;51.08;98736.66;5015636;28;20036;-52
2023/03/29 06:25:44;;;;;;;9.15;4.30;;;;;;;9.82;50.79;98748.91;5027408;28;20017;-54
2023/03/29 06:28:10;;;;;;;10.65;4.57;;;;;;;9.62;51.44;98736.41;5020192;28;20030;-58
2023/03/29 06:30:37;;;;;;;7.03;3.90;;;;;;;9.86;50.55;98739.59;5015256;28;20133;-52
2023/03/29 06:33:05;;;;;;;8.40;4.18;;;;;;;9.88;50.51;98727.75;5015212;28;20034;-55
2023/03/29 06:35:30;;;;;;;9.75;4.60;;;;;;;9.71;51.36;98733.88;5021264;28;20036;-55
2023/03/29 06:37:56;;;;;;;7.30;3.83;;;;;;;9.76;50.95;98726.28;5035205;28;20041;-54
2023/03/29 06:40:21;;;;;;;9.07;3.95;;;;;;;9.91;50.62;98718.63;5035490;28;20030;-59
2023/03/29 06:42:47;;;;;;;9.95;4.13;;;;;;;9.84;50.99;98726.38;5035022;28;20456;-58
2023/03/29 06:45:13;;;;;;;11.50;4.10;;;;;;;9.99;50.29;98720.56;5033698;28;20041;-59
2023/03/29 06:47:39;;;;;;;7.68;4.40;;;;;;;10.03;50.37;98754.03;5035417;28;20413;-55
2023/03/29 06:50:05;;;;;;;11.32;4.80;;;;;;;9.82;51.56;98731.03;5035409;28;20074;-54
2023/03/29 06:52:32;;;;;;;9.40;4.38;;;;;;;9.73;51.98;98734.59;5024874;28;20037;-58
2023/03/29 06:55:00;;;;;;;7.15;3.95;;;;;;;9.67;52.48;98743.19;5015715;28;20132;-57
2023/03/29 06:57:26;;;;;;;10.35;4.30;;;;;;;9.53;52.95;98726.59;5015405;28;20030;-60
2023/03/29 06:59:52;;;;;;;9.35;3.95;;;;;;;9.39;53.63;98698.53;5014378;28;20037;-58
2023/03/29 07:02:18;;;;;;;11.93;4.07;;;;;;;9.37;53.59;98721.00;5023540;28;20029;-55
2023/03/29 07:04:44;;;;;;;10.95;4.50;;;;;;;9.39;54.11;98716.38;5034928;28;20057;-60
2023/03/29 07:07:18;;;;;;;9.55;4.60;;;;;;;9.57;53.69;98738.69;5035019;28;20120;-61
2023/03/29 07:09:45;;;;;;;13.98;4.82;;;;;;;9.36;54.96;98730.00;5020016;28;20091;-59
2023/03/29 07:12:11;;;;;;;9.98;4.93;;;;;;;9.31;55.00;98733.97;5031461;28;20128;-57
2023/03/29 07:14:36;;;;;;;6.78;4.43;;;;;;;9.43;54.28;98731.16;5034109;28;20124;-59
2023/03/29 07:17:03;;;;;;;8.43;4.75;;;;;;;9.29;55.52;98733.25;5023429;28;20026;-61
2023/03/29 07:19:29;;;;;;;9.13;4.80;;;;;;;9.17;55.93;98742.44;5024379;28;20056;-62
2023/03/29 07:21:54;;;;;;;6.07;4.32;;;;;;;9.07;55.85;98686.34;5015098;28;20037;-63
2023/03/29 07:24:21;;;;;;;8.50;3.97;;;;;;;9.29;55.26;98727.91;5016338;28;20072;-64
2023/03/29 07:26:47;;;;;;;7.13;4.72;;;;;;;9.41;55.62;98741.13;5031105;28;20120;-61
2023/03/29 07:29:14;;;;;;;7.85;4.03;;;;;;;9.39;55.16;98751.09;5033936;28;20045;-60
2023/03/29 07:31:41;;;;;;;5.68;4.20;;;;;;;9.30;55.55;98720.75;5033922;28;20045;-62
2023/03/29 07:34:10;;;;;;;8.52;4.40;;;;;;;9.37;55.45;98742.38;5033039;28;20086;-62
2023/03/29 07:36:39;;;;;;;7.85;4.03;;;;;;;9.37;55.26;98742.38;5031925;28;20021;-62
2023/03/29 07:39:07;;;;;;;6.10;4.13;;;;;;;9.25;56.38;98739.03;5032866;28;20077;-62
2023/03/29 07:41:33;;;;;;;8.63;5.00;;;;;;;9.44;56.99;98732.84;5033693;28;20045;-61
2023/03/29 07:44:03;;;;;;;11.18;4.70;;;;;;;9.33;57.30;98739.16;5022443;28;20095;-58
2023/03/29 07:46:30;;;;;;;5.47;4.57;;;;;;;9.45;58.09;98737.19;5019299;28;20041;-60
2023/03/29 07:48:56;;;;;;;6.68;3.75;;;;;;;9.66;57.20;98730.81;5025828;28;20030;-61
2023/03/29 07:51:22;;;;;;;7.63;4.32;;;;;;;9.78;56.72;98734.97;5032965;28;20107;-61
2023/03/29 07:53:48;;;;;;;6.30;4.20;;;;;;;9.96;55.54;98727.03;5013459;28;20079;-58
2023/03/29 07:56:14;;;;;;;6.03;3.85;;;;;;;10.02;55.52;98725.59;5018505;28;20037;-56
2023/03/29 07:58:40;;;;;;;7.93;4.13;;;;;;;10.08;54.18;98733.03;5014789;28;20049;-62
2023/03/29 08:01:07;;;;;;;8.40;3.80;;;;;;;9.98;54.40;98721.53;5015150;28;20033;-59
2023/03/29 08:03:33;;;;;;;8.75;4.15;;;;;;;9.83;55.33;98742.56;5032610;28;20033;-57
2023/03/29 08:06:01;;;;;;;6.65;3.90;;;;;;;9.73;55.56;98715.88;5034151;28;20025;-59
2023/03/29 08:08:27;;;;;;;7.07;4.28;;;;;;;9.71;55.01;98713.34;5025446;28;20046;-58
2023/03/29 08:10:53;;;;;;;6.45;4.55;;;;;;;9.87;55.66;98736.75;5033719;28;20512;-60
2023/03/29 08:13:18;;;;;;;6.30;4.45;;;;;;;9.97;55.65;98731.38;5028262;28;20034;-58
2023/03/29 08:15:47;;;;;;;6.82;4.60;;;;;;;10.22;54.15;98736.22;5027052;28;20410;-55
2023/03/29 08:18:13;;;;;;;7.63;4.60;;;;;;;10.00;56.00;98735.59;5030976;28;20029;-57
2023/03/29 08:20:39;;;;;;;10.45;4.97;;;;;;;10.05;55.44;98730.66;5022205;28;20050;-61
2023/03/29 08:23:05;;;;;;;8.48;4.47;;;;;;;10.03;55.86;98733.50;5019088;28;20515;-58
2023/03/29 08:25:31;;;;;;;8.63;4.65;;;;;;;10.27;54.89;98728.59;5020336;28;20049;-58
2023/03/29 08:27:56;;;;;;;7.05;4.47;;;;;;;10.29;54.97;98731.94;5013600;28;20195;-58
2023/03/29 08:30:22;;;;;;;7.75;4.53;;;;;;;10.25;55.70;98714.50;5016250;28;20431;-54
2023/03/29 08:32:48;;;;;;;7.13;4.57;;;;;;;10.50;54.14;98729.06;5012986;28;20113;-58
2023/03/29 08:35:14;;;;;;;7.47;4.50;;;;;;;10.42;54.54;98713.75;5023384;28;20111;-52
2023/03/29 08:37:39;;;;;;;8.73;4.57;;;;;;;10.52;55.09;98720.88;5021323;28;20440;-60
2023/03/29 08:40:06;;;;;;;7.30;4.80;;;;;;;10.68;54.19;98709.47;5020042;28;20046;-59
2023/03/29 08:42:56;;;;;;;8.52;4.78;;;;;;;10.71;54.13;98720.72;5027609;28;20033;-61
2023/03/29 08:46:00;;;;;;;8.68;4.93;;;;;;;10.69;54.63;98722.72;5013106;28;20087;-60
2023/03/29 08:48:37;;;;;;;8.85;5.18;;;;;;;10.63;54.60;98723.34;5015728;28;20056;-60
2023/03/29 08:51:18;;;;;;;5.65;4.40;;;;;;;10.55;54.45;98726.75;5012847;28;20061;-56
2023/03/29 08:53:55;;;;;;;8.65;5.00;;;;;;;10.47;55.12;98711.47;5023522;28;20061;-58
2023/03/29 08:56:27;;;;;;;8.27;4.55;;;;;;;10.39;56.53;98726.53;5013457;28;20053;-68
2023/03/29 08:58:56;;;;;;;8.13;4.80;;;;;;;9.98;58.79;98713.53;5012377;28;20163;-64
2023/03/29 09:01:23;;;;;;;6.95;4.60;;;;;;;9.80;59.11;98690.22;5029956;28;20462;-67
2023/03/29 09:03:54;;;;;;;6.03;4.55;;;;;;;9.96;58.52;98729.69;5031229;28;20025;-66
2023/03/29 09:06:20;;;;;;;6.28;3.83;;;;;;;9.94;58.05;98720.16;5013926;28;20762;-66
2023/03/29 09:08:48;;;;;;;6.22;3.95;;;;;;;9.93;57.95;98713.97;5028916;28;20052;-69
2023/03/29 09:11:23;;;;;;;6.10;3.67;;;;;;;9.79;58.98;98693.91;5011460;28;20049;-67
2023/03/29 09:14:26;;;;;;;7.07;4.00;;;;;;;10.15;58.34;98715.41;5011972;28;20029;-67
2023/03/29 09:17:18;;;;;;;5.68;3.35;;;;;;;10.12;58.22;98704.16;5018396;28;20129;-54
2023/03/29 09:20:22;;;;;;;5.93;3.20;;;;;;;10.55;56.82;98721.41;5031562;28;20490;-57
2023/03/29 09:22:54;;;;;;;5.28;3.78;;;;;;;10.37;57.79;98693.75;5028298;28;20072;-55
2023/03/29 09:25:28;;;;;;;9.02;2.80;;;;;;;10.68;56.81;98721.03;5009932;28;20456;-56
2023/03/29 09:28:04;;;;;;;5.30;3.58;;;;;;;10.34;58.08;98718.97;5017625;28;20128;-56
2023/03/29 09:30:45;;;;;;;;;;;;;;;10.63;56.51;98709.97;5027771;28;20033;-51
2023/03/29 09:33:49;;;;;;;3.95;3.25;;;;;;;10.28;58.10;98724.91;5032418;28;20279;-53
2023/03/29 09:36:23;;;;;;;5.43;3.53;;;;;;;9.91;59.62;98716.78;5031594;28;20102;-52
2023/03/29 09:38:53;;;;;;;7.47;3.65;;;;;;;9.73;61.08;98714.03;5032187;28;20376;-52
2023/03/29 09:41:30;;;;;;;7.88;3.70;;;;;;;9.47;61.91;98679.94;5031618;28;20106;-53
2023/03/29 09:43:59;;;;;;;6.82;3.90;;;;;;;9.52;62.64;98746.31;5018270;28;20099;-54
2023/03/29 09:46:44;;;;;;;9.43;3.80;;;;;;;9.67;61.86;98711.13;5029565;28;20159;-52
2023/03/29 09:49:16;;;;;;;10.60;4.38;;;;;;;9.62;62.38;98716.88;5023642;28;20049;-63
2023/03/29 09:51:43;;;;;;;6.22;4.13;;;;;;;9.64;62.56;98712.25;5011410;28;20034;-63
2023/03/29 09:54:11;;;;;;;7.13;3.55;;;;;;;9.61;62.33;98705.34;5011527;28;20042;-62
2023/03/29 09:56:38;;;;;;;6.90;4.22;;;;;;;9.56;63.42;98723.66;5028361;28;20179;-64
2023/03/29 09:59:03;;;;;;;8.57;4.10;;;;;;;9.49;63.34;98727.91;5015916;28;20037;-63
2023/03/29 10:01:37;;;;;;;6.80;3.75;;;;;;;9.50;63.08;98708.19;5032103;28;20095;-62
2023/03/29 10:04:06;;;;;;;6.13;4.53;;;;;;;9.46;64.07;98699.63;5015234;28;20152;-63
2023/03/29 10:06:33;;;;;;;6.47;3.55;;;;;;;9.57;62.40;98713.81;5014748;28;20038;-63
2023/03/29 10:08:58;;;;;;;7.18;4.32;;;;;;;9.58;63.08;98708.31;5027901;28;20029;-62
2023/03/29 10:11:37;;;;;;;6.00;4.40;;;;;;;9.66;63.42;98704.09;5031662;28;20292;-63
2023/03/29 10:14:16;;;;;;;8.73;4.00;;;;;;;9.72;62.47;98715.00;5031599;28;20120;-63
2023/03/29 10:16:44;;;;;;;7.00;4.93;;;;;;;9.60;63.92;98710.84;5018897;28;20072;-65
2023/03/29 10:19:23;;;;;;;10.23;5.40;;;;;;;9.72;63.72;98690.97;5029194;28;20076;-63
2023/03/29 10:21:51;;;;;;;7.82;5.15;;;;;;;9.62;64.48;98738.25;5032088;28;20037;-62
2023/03/29 10:24:25;;;;;;;8.32;5.15;;;;;;;9.75;63.87;98719.25;5032111;28;20486;-62
2023/03/29 10:26:56;;;;;;;6.78;4.60;;;;;;;9.81;63.74;98748.06;5031280;28;20061;-62
2023/03/29 10:29:23;;;;;;;6.60;4.43;;;;;;;9.76;63.70;98707.56;5030702;28;20038;-64
2023/03/29 10:31:49;;;;;;;6.97;4.20;;;;;;;9.80;63.44;98695.56;5030586;28;20038;-64
2023/03/29 10:34:16;;;;;;;7.75;5.55;;;;;;;9.54;63.69;98656.16;5011169;28;20342;-63
2023/03/29 10:36:49;;;;;;;4.88;3.50;;;;;;;9.60;63.21;98674.25;5020849;28;20029;-62
2023/03/29 10:39:15;;;;;;;7.13;4.95;;;;;;;9.66;64.19;98693.41;5030787;28;20056;-64
2023/03/29 10:41:42;;;;;;;7.63;5.35;;;;;;;9.48;64.32;98696.81;5031297;28;20437;-63
2023/03/29 10:44:25;;;;;;;8.57;5.40;;;;;;;9.58;63.99;98662.88;5018174;28;20029;-64
2023/03/29 10:46:50;;;;;;;9.35;5.15;;;;;;;9.58;64.87;98675.41;5011248;28;20044;-63
2023/03/29 10:49:21;;;;;;;7.47;4.70;;;;;;;9.72;64.06;98708.84;5014690;28;20434;-62
2023/03/29 10:51:48;;;;;;;10.48;4.57;;;;;;;9.58;63.91;98673.56;5015727;28;20505;-62
2023/03/29 10:54:20;;;;;;;8.02;5.53;;;;;;;9.43;65.41;98680.38;5018154;28;20033;-63
2023/03/29 10:56:54;;;;;;;11.30;6.13;;;;;;;9.32;66.91;98692.91;5034047;28;20038;-62
2023/03/29 10:59:22;;;;;;;6.50;4.80;;;;;;;9.39;65.67;98703.88;5034793;28;20448;-62
2023/03/29 11:01:51;;;;;;;10.98;5.90;;;;;;;9.25;67.26;98680.25;5034401;28;20045;-63
2023/03/29 11:04:55;;;;;;;9.18;5.68;;;;;;;9.40;66.71;98702.03;5034544;28;20036;-64
2023/03/29 11:07:33;;;;;;;7.68;5.72;;;;;;;9.45;66.32;98697.94;5034518;28;20096;-65
2023/03/29 11:10:17;;;;;;;5.55;3.92;;;;;;;9.61;65.23;98686.63;5006954;28;20037;-63
2023/03/29 11:12:55;;;;;;;8.82;6.43;;;;;;;9.24;67.25;98700.81;5017338;28;20096;-63
2023/03/29 11:15:37;;;;;;;9.00;5.38;;;;;;;9.34;66.73;98723.00;5015215;28;20045;-63
2023/03/29 11:18:21;;;;;;;10.68;7.68;;;;;;;9.05;67.60;98683.00;5015040;28;20099;-61
2023/03/29 11:20:59;;;;;;;7.82;5.65;;;;;;;9.07;68.03;98689.03;5015029;28;20088;-62
2023/03/29 11:23:40;;;;;;;8.32;5.97;;;;;;;9.05;67.98;98694.50;5013971;28;20037;-63
2023/03/29 11:26:17;;;;;;;8.30;6.22;;;;;;;9.08;68.40;98697.88;5002410;28;20475;-64
2023/03/29 11:29:01;;;;;;;6.75;5.25;;;;;;;9.08;67.95;98692.53;5022616;28;20037;-65
2023/03/29 11:32:02;;;;;;;6.82;5.25;;;;;;;8.97;68.42;98697.03;5014505;28;20049;-63
2023/03/29 11:35:02;;;;;;;7.97;5.20;;;;;;;8.92;68.33;98717.97;5021973;28;20355;-63
2023/03/29 11:37:40;;;;;;;8.27;6.38;;;;;;;8.71;70.05;98702.09;5034107;28;20065;-63
2023/03/29 11:40:28;;;;;;;8.48;5.65;;;;;;;8.78;69.42;98689.88;5034411;28;20480;-63
2023/03/29 11:42:59;;;;;;;9.05;6.28;;;;;;;8.58;69.99;98681.88;5033998;28;20058;-62
2023/03/29 11:45:31;;;;;;;9.88;5.80;;;;;;;8.63;70.26;98692.09;5032836;28;20427;-61
2023/03/29 11:48:00;;;;;;;9.00;5.97;;;;;;;8.64;71.04;98698.31;5032178;28;20044;-63
2023/03/29 11:50:38;;;;;;;12.23;6.68;;;;;;;8.73;70.08;98700.97;5033447;28;20044;-61
2023/03/29 11:53:21;;;;;;;7.38;6.00;;;;;;;8.93;69.20;98740.16;5034122;28;20053;-64